createdAt,value
2018-09-22T00:02:27.344Z,100271.27
2018-09-22T00:04:55.738Z,100278.45
2018-09-22T00:07:24.283Z,100277.53
2018-09-22T00:09:52.723Z,100287.70
2018-09-22T00:12:21.247Z,100297.70
2018-09-22T00:14:50.012Z,100294.41
2018-09-22T00:17:18.562Z,100290.59
2018-09-22T00:19:47.036Z,100302.94
2018-09-22T00:22:15.907Z,100304.99
2018-09-22T00:24:44.441Z,100299.73
2018-09-22T00:27:12.955Z,100301.66
2018-09-22T00:29:41.433Z,100308.09
2018-09-22T00:32:09.904Z,100298.22
2018-09-22T00:34:38.373Z,100294.37
2018-09-22T00:37:07.132Z,100294.47
2018-09-22T00:39:35.600Z,100302.23
2018-09-22T00:42:04.100Z,100297.52
2018-09-22T00:44:32.807Z,100300.53
2018-09-22T00:47:01.281Z,100298.53
2018-09-22T00:49:29.727Z,100293.72
2018-09-22T00:51:58.140Z,100289.78
2018-09-22T00:54:26.537Z,100289.14
2018-09-22T00:56:55.161Z,100279.36
2018-09-22T00:59:23.609Z,100285.07
2018-09-22T01:01:52.043Z,100278.33
2018-09-22T01:04:20.618Z,100286.89
2018-09-22T01:06:49.100Z,100292.24
2018-09-22T01:09:17.762Z,100290.16
2018-09-22T01:11:46.293Z,100280.49
2018-09-22T01:14:14.772Z,100286.84
2018-09-22T01:16:43.213Z,100295.91
2018-09-22T01:19:11.661Z,100291.17
2018-09-22T01:21:40.204Z,100299.94
2018-09-22T01:24:09.088Z,100305.73
2018-09-22T01:26:37.584Z,100313.27
2018-09-22T01:29:06.098Z,100311.95
2018-09-22T01:31:34.469Z,100305.48
2018-09-22T01:34:02.876Z,100301.55
2018-09-22T01:36:31.366Z,100308.37
2018-09-22T01:38:59.903Z,100313.80
2018-09-22T01:41:28.460Z,100314.91
2018-09-22T01:43:56.947Z,100305.00
2018-09-22T01:46:25.415Z,100321.30
2018-09-22T01:48:53.884Z,100338.80
2018-09-22T01:51:22.341Z,100327.47
2018-09-22T01:53:50.751Z,100330.09
2018-09-22T01:56:19.171Z,100328.70
2018-09-22T01:58:47.629Z,100328.59
2018-09-22T02:01:16.081Z,100328.23
2018-09-22T02:03:44.463Z,100327.39
2018-09-22T02:06:13.004Z,100327.03
2018-09-22T02:08:41.413Z,100327.78
2018-09-22T02:11:09.802Z,100327.77
2018-09-22T02:13:38.248Z,100335.52
2018-09-22T02:16:06.762Z,100335.01
2018-09-22T02:18:35.195Z,100325.20
2018-09-22T02:21:04.117Z,100325.08
2018-09-22T02:23:32.973Z,100333.61
2018-09-22T02:26:01.420Z,100322.75
2018-09-22T02:28:29.884Z,100336.47
2018-09-22T02:30:58.470Z,100334.59
2018-09-22T02:33:26.874Z,100345.99
2018-09-22T02:35:55.838Z,100340.71
2018-09-22T02:38:24.302Z,100348.41
2018-09-22T02:40:52.872Z,100343.34
2018-09-22T02:43:21.337Z,100350.23
2018-09-22T02:45:49.787Z,100367.44
2018-09-22T02:48:18.185Z,100366.52
2018-09-22T02:50:47.489Z,100377.31
2018-09-22T02:53:15.941Z,100372.59
2018-09-22T02:55:44.389Z,100381.16
2018-09-22T02:58:13.097Z,100386.49
2018-09-22T03:00:41.538Z,100379.66
2018-09-22T03:03:12.300Z,100396.86
2018-09-22T03:05:41.120Z,100391.06
2018-09-22T03:08:09.515Z,100402.19
2018-09-22T03:10:37.946Z,100404.02
2018-09-22T03:13:06.469Z,100404.48
2018-09-22T03:15:34.976Z,100397.72
2018-09-22T03:18:03.615Z,100413.55
2018-09-22T03:20:32.123Z,100410.62
2018-09-22T03:23:00.638Z,100416.16
2018-09-22T03:25:29.095Z,100419.50
2018-09-22T03:27:57.525Z,100427.75
2018-09-22T03:30:25.993Z,100427.36
2018-09-22T03:32:54.409Z,100425.23
2018-09-22T03:35:23.522Z,100433.37
2018-09-22T03:37:52.900Z,100438.05
2018-09-22T03:40:22.064Z,100443.28
2018-09-22T03:42:50.765Z,100441.56
2018-09-22T03:45:19.288Z,100453.54
2018-09-22T03:47:48.036Z,100450.95
2018-09-22T03:50:17.475Z,100454.84
2018-09-22T03:52:46.095Z,100452.83
2018-09-22T03:55:14.579Z,100449.38
2018-09-22T03:57:43.104Z,100453.74
2018-09-22T04:00:12.412Z,100455.05
2018-09-22T04:02:40.856Z,100460.98
2018-09-22T04:05:09.467Z,100453.86
2018-09-22T04:07:38.772Z,100459.36
2018-09-22T04:10:07.412Z,100461.11
2018-09-22T04:12:35.913Z,100466.25
2018-09-22T04:15:04.544Z,100466.70
2018-09-22T04:17:33.010Z,100475.78
2018-09-22T04:20:01.502Z,100477.48
2018-09-22T04:22:30.224Z,100478.80
2018-09-22T04:24:58.754Z,100483.89
2018-09-22T04:27:27.332Z,100484.73
2018-09-22T04:29:56.521Z,100489.74
2018-09-22T04:32:25.092Z,100488.11
2018-09-22T04:34:54.481Z,100491.05
2018-09-22T04:37:23.123Z,100497.45
2018-09-22T04:39:51.832Z,100497.87
2018-09-22T04:42:20.692Z,100493.61
2018-09-22T04:44:49.133Z,100505.98
2018-09-22T04:47:17.530Z,100503.47
2018-09-22T04:49:45.931Z,100506.79
2018-09-22T04:52:14.525Z,100506.52
2018-09-22T04:54:43.008Z,100506.96
2018-09-22T04:57:11.535Z,100510.10
2018-09-22T04:59:40.056Z,100510.49
2018-09-22T05:02:09.585Z,100510.08
2018-09-22T05:04:38.614Z,100516.88
2018-09-22T05:07:07.301Z,100517.34
2018-09-22T05:09:35.948Z,100527.12
2018-09-22T05:12:04.645Z,100532.32
2018-09-22T05:14:33.225Z,100543.80
2018-09-22T05:17:01.764Z,100545.51
2018-09-22T05:19:30.312Z,100548.52
2018-09-22T05:21:58.810Z,100547.53
2018-09-22T05:24:27.365Z,100544.12
2018-09-22T05:26:55.987Z,100552.66
2018-09-22T05:29:25.222Z,100556.11
2018-09-22T05:31:53.827Z,100558.60
2018-09-22T05:34:22.773Z,100561.52
2018-09-22T05:36:53.133Z,100565.33
2018-09-22T05:39:23.296Z,100569.52
2018-09-22T05:41:52.425Z,100576.21
2018-09-22T05:44:21.791Z,100580.97
2018-09-22T05:46:50.938Z,100579.17
2018-09-22T05:49:19.502Z,100590.70
2018-09-22T05:51:48.475Z,100596.54
2018-09-22T05:54:17.419Z,100599.92
2018-09-22T05:56:46.184Z,100598.17
2018-09-22T05:59:15.392Z,100597.23
2018-09-22T06:01:44.098Z,100601.02
2018-09-22T06:04:13.194Z,100618.42
2018-09-22T06:06:41.583Z,100622.03
2018-09-22T06:09:10.796Z,100618.80
2018-09-22T06:11:39.222Z,100621.57
2018-09-22T06:14:07.700Z,100616.25
2018-09-22T06:16:36.344Z,100617.41
2018-09-22T06:19:04.914Z,100618.75
2018-09-22T06:21:33.483Z,100612.28
2018-09-22T06:24:02.158Z,100613.69
2018-09-22T06:26:30.875Z,100615.76
2018-09-22T06:28:59.552Z,100620.08
2018-09-22T06:31:28.309Z,100622.86
2018-09-22T06:33:56.880Z,100629.67
2018-09-22T06:36:25.578Z,100631.94
2018-09-22T06:38:54.219Z,100639.67
2018-09-22T06:41:22.769Z,100629.98
2018-09-22T06:43:51.920Z,100630.70
2018-09-22T06:46:20.600Z,100641.11
2018-09-22T06:48:49.061Z,100648.02
2018-09-22T06:51:18.415Z,100656.20
2018-09-22T06:53:47.000Z,100657.48
2018-09-22T06:56:15.854Z,100655.81
2018-09-22T06:58:44.300Z,100645.59
2018-09-22T07:01:12.951Z,100654.08
2018-09-22T07:03:41.365Z,100667.65
2018-09-22T07:06:10.185Z,100659.39
2018-09-22T07:08:38.852Z,100661.26
2018-09-22T07:11:07.332Z,100659.23
2018-09-22T07:13:35.743Z,100665.50
2018-09-22T07:16:04.141Z,100662.80
2018-09-22T07:18:32.689Z,100662.84
2018-09-22T07:21:05.988Z,100660.78
2018-09-22T07:23:34.518Z,100668.30
2018-09-22T07:26:03.064Z,100664.28
2018-09-22T07:28:31.544Z,100668.53
2018-09-22T07:31:00.138Z,100670.69
2018-09-22T07:33:28.508Z,100665.98
2018-09-22T07:35:56.962Z,100674.75
2018-09-22T07:38:25.443Z,100675.31
2018-09-22T07:41:25.240Z,100682.38
2018-09-22T07:43:53.623Z,100670.38
2018-09-22T07:46:22.117Z,100678.11
2018-09-22T07:48:50.499Z,100689.16
2018-09-22T07:51:18.931Z,100683.98
2018-09-22T07:53:47.338Z,100680.61
2018-09-22T07:56:15.798Z,100680.41
2018-09-22T07:58:44.297Z,100684.68
2018-09-22T08:01:12.810Z,100678.31
2018-09-22T08:03:41.271Z,100682.66
2018-09-22T08:06:09.744Z,100683.50
2018-09-22T08:08:38.255Z,100696.62
2018-09-22T08:11:07.149Z,100695.11
2018-09-22T08:13:35.775Z,100700.92
2018-09-22T08:16:04.408Z,100702.86
2018-09-22T08:18:33.008Z,100706.61
2018-09-22T08:21:01.660Z,100704.73
2018-09-22T08:23:30.179Z,100716.86
2018-09-22T08:25:58.958Z,100713.48
2018-09-22T08:28:27.788Z,100715.77
2018-09-22T08:30:56.746Z,100707.13
2018-09-22T08:33:25.421Z,100707.02
2018-09-22T08:35:54.151Z,100710.25
2018-09-22T08:38:23.760Z,100707.06
2018-09-22T08:40:52.484Z,100715.41
2018-09-22T08:43:21.335Z,100712.38
2018-09-22T08:45:50.065Z,100717.75
2018-09-22T08:48:18.861Z,100713.08
2018-09-22T08:50:47.849Z,100717.75
2018-09-22T08:53:16.513Z,100715.81
2018-09-22T08:55:45.211Z,100724.16
2018-09-22T08:58:13.829Z,100721.15
2018-09-22T09:00:42.539Z,100716.89
2018-09-22T09:03:11.172Z,100723.57
2018-09-22T09:05:40.386Z,100727.70
2018-09-22T09:08:08.999Z,100716.16
2018-09-22T09:10:38.877Z,100730.91
2018-09-22T09:13:08.343Z,100733.32
2018-09-22T09:15:37.434Z,100731.66
2018-09-22T09:18:06.096Z,100725.83
2018-09-22T09:20:35.342Z,100732.66
2018-09-22T09:23:04.106Z,100733.31
2018-09-22T09:25:32.933Z,100731.72
2018-09-22T09:28:01.826Z,100725.08
2018-09-22T09:30:30.789Z,100730.08
2018-09-22T09:32:59.512Z,100724.45
2018-09-22T09:35:28.155Z,100723.42
2018-09-22T09:37:56.959Z,100718.42
2018-09-22T09:40:25.796Z,100720.75
2018-09-22T09:42:54.750Z,100718.29
2018-09-22T09:45:23.531Z,100709.66
2018-09-22T09:47:52.523Z,100711.61
2018-09-22T09:50:21.540Z,100703.02
2018-09-22T09:52:51.040Z,100709.89
2018-09-22T09:55:20.100Z,100700.22
2018-09-22T09:57:48.828Z,100704.83
2018-09-22T10:00:21.885Z,100697.34
2018-09-22T10:02:50.538Z,100700.05
2018-09-22T10:05:19.700Z,100703.34
2018-09-22T10:07:48.623Z,100703.52
2018-09-22T10:10:17.945Z,100704.02
2018-09-22T10:12:46.735Z,100706.19
2018-09-22T10:15:16.036Z,100698.66
2018-09-22T10:17:45.554Z,100701.80
2018-09-22T10:20:14.452Z,100701.13
2018-09-22T10:22:44.061Z,100709.15
2018-09-22T10:25:13.248Z,100711.57
2018-09-22T10:27:42.129Z,100689.11
2018-09-22T10:30:11.041Z,100682.26
2018-09-22T10:32:40.830Z,100689.48
2018-09-22T10:35:09.487Z,100692.06
2018-09-22T10:37:38.499Z,100689.92
2018-09-22T10:40:07.377Z,100681.23
2018-09-22T10:42:37.020Z,100692.23
2018-09-22T10:45:06.591Z,100687.24
2018-09-22T10:47:35.506Z,100690.69
2018-09-22T10:50:04.480Z,100690.44
2018-09-22T10:52:34.828Z,100693.70
2018-09-22T10:55:04.241Z,100693.62
2018-09-22T10:57:33.142Z,100685.55
2018-09-22T11:00:02.069Z,100688.33
2018-09-22T11:02:30.779Z,100691.15
2018-09-22T11:04:59.698Z,100689.91
2018-09-22T11:07:28.853Z,100697.65
2018-09-22T11:09:58.058Z,100692.89
2018-09-22T11:12:26.620Z,100696.39
2018-09-22T11:14:55.635Z,100693.06
2018-09-22T11:17:24.260Z,100693.76
2018-09-22T11:19:52.983Z,100704.39
2018-09-22T11:22:21.569Z,100711.37
2018-09-22T11:24:50.089Z,100717.30
2018-09-22T11:27:18.997Z,100715.60
2018-09-22T11:29:47.459Z,100713.30
2018-09-22T11:32:16.353Z,100712.38
2018-09-22T11:34:45.053Z,100704.25
2018-09-22T11:37:13.676Z,100701.30
2018-09-22T11:39:42.375Z,100692.11
2018-09-22T11:42:11.430Z,100702.14
2018-09-22T11:44:40.044Z,100690.48
2018-09-22T11:47:08.587Z,100676.14
2018-09-22T11:49:37.873Z,100682.65
2018-09-22T11:52:07.336Z,100680.92
2018-09-22T11:54:36.219Z,100686.08
2018-09-22T11:57:05.109Z,100665.80
2018-09-22T11:59:33.588Z,100678.86
2018-09-22T12:02:02.252Z,100681.34
2018-09-22T12:04:31.329Z,100684.20
2018-09-22T12:07:00.282Z,100692.48
2018-09-22T12:09:29.138Z,100699.06
2018-09-22T12:11:57.862Z,100686.65
2018-09-22T12:14:27.370Z,100695.05
2018-09-22T12:16:56.357Z,100686.39
2018-09-22T12:19:25.132Z,100681.98
2018-09-22T12:21:54.569Z,100674.30
2018-09-22T12:24:23.336Z,100670.73
2018-09-22T12:26:53.032Z,100677.83
2018-09-22T12:29:22.098Z,100672.27
2018-09-22T12:31:50.872Z,100675.52
2018-09-22T12:34:20.230Z,100668.84
2018-09-22T12:36:49.441Z,100660.88
2018-09-22T12:39:19.728Z,100664.98
2018-09-22T12:41:48.660Z,100666.14
2018-09-22T12:44:17.758Z,100673.95
2018-09-22T12:46:47.055Z,100668.59
2018-09-22T12:49:16.336Z,100669.81
2018-09-22T12:51:45.321Z,100668.73
2018-09-22T12:54:14.420Z,100676.19
2018-09-22T12:56:42.910Z,100669.19
2018-09-22T12:59:11.715Z,100682.75
2018-09-22T13:01:41.598Z,100683.52
2018-09-22T13:08:21.925Z,100661.46
2018-09-22T13:10:50.541Z,100657.41
2018-09-22T13:19:03.945Z,100647.58
2018-09-22T13:21:34.005Z,100655.98
2018-09-22T13:24:05.151Z,100656.55
2018-09-22T13:26:35.093Z,100649.12
2018-09-22T13:29:04.115Z,100633.78
2018-09-22T13:31:33.487Z,100636.31
2018-09-22T13:34:02.083Z,100633.66
2018-09-22T13:36:31.131Z,100643.95
2018-09-22T13:38:59.902Z,100652.27
2018-09-22T13:41:28.671Z,100652.68
2018-09-22T13:43:57.877Z,100654.41
2018-09-22T13:46:26.533Z,100661.08
2018-09-22T13:48:55.936Z,100658.25
2018-09-22T13:51:24.917Z,100656.19
2018-09-22T13:53:53.938Z,100656.56
2018-09-22T13:56:23.507Z,100661.35
2018-09-22T13:58:52.125Z,100648.94
2018-09-22T14:01:21.414Z,100637.86
2018-09-22T14:03:50.673Z,100641.80
2018-09-22T14:06:19.925Z,100638.33
2018-09-22T14:08:49.424Z,100632.23
2018-09-22T14:11:19.474Z,100635.16
2018-09-22T14:13:49.864Z,100633.72
2018-09-22T14:16:19.362Z,100626.44
2018-09-22T14:18:48.301Z,100615.67
2018-09-22T14:21:18.687Z,100605.57
2018-09-22T14:23:47.959Z,100612.06
2018-09-22T14:26:18.737Z,100613.63
2018-09-22T14:28:47.940Z,100606.89
2018-09-22T14:31:17.449Z,100611.95
2018-09-22T14:33:46.611Z,100607.44
2018-09-22T14:36:15.848Z,100603.80
2018-09-22T14:38:45.345Z,100604.72
2018-09-22T14:41:16.994Z,100598.98
2018-09-22T14:43:46.364Z,100602.91
2018-09-22T14:46:16.250Z,100591.79
2018-09-22T14:48:47.127Z,100594.78
2018-09-22T14:51:17.218Z,100593.94
2018-09-22T14:53:45.899Z,100599.89
2018-09-22T14:56:15.623Z,100595.74
2018-09-22T14:58:44.709Z,100603.84
2018-09-22T15:01:13.706Z,100603.73
2018-09-22T15:03:43.286Z,100600.59
2018-09-22T15:06:13.432Z,100600.88
2018-09-22T15:08:42.814Z,100602.82
2018-09-22T15:11:13.182Z,100601.25
2018-09-22T15:13:42.989Z,100596.59
2018-09-22T15:16:12.021Z,100588.23
2018-09-22T15:18:42.113Z,100597.00
2018-09-22T15:21:12.400Z,100600.19
2018-09-22T15:23:41.844Z,100586.67
2018-09-22T15:26:13.045Z,100566.05
2018-09-22T15:28:44.377Z,100577.62
2018-09-22T15:31:13.625Z,100587.55
2018-09-22T15:33:42.709Z,100601.25
2018-09-22T15:36:11.946Z,100600.47
2018-09-22T15:38:41.445Z,100580.20
2018-09-22T15:41:10.455Z,100576.98
2018-09-22T15:43:39.971Z,100577.73
2018-09-22T15:46:09.218Z,100583.81
2018-09-22T15:48:38.425Z,100576.33
2018-09-22T15:51:07.054Z,100582.38
2018-09-22T15:53:36.258Z,100581.23
2018-09-22T15:56:05.416Z,100583.81
2018-09-22T15:58:35.256Z,100574.63
2018-09-22T16:01:05.806Z,100575.97
2018-09-22T16:03:34.765Z,100585.75
2018-09-22T16:06:04.732Z,100606.23
2018-09-22T16:08:33.527Z,100613.78
2018-09-22T16:11:02.167Z,100620.06
2018-09-22T16:13:30.838Z,100608.81
2018-09-22T16:16:00.395Z,100599.94
2018-09-22T16:18:29.122Z,100597.52
2018-09-22T16:20:58.097Z,100612.03
2018-09-22T16:23:26.722Z,100606.28
2018-09-22T16:25:55.502Z,100620.14
2018-09-22T16:28:25.197Z,100626.75
2018-09-22T16:30:54.094Z,100634.23
2018-09-22T16:33:22.885Z,100653.52
2018-09-22T16:35:52.091Z,100643.45
2018-09-22T16:38:21.323Z,100625.05
2018-09-22T16:40:50.178Z,100627.77
2018-09-22T16:43:18.905Z,100628.62
2018-09-22T16:45:48.052Z,100630.05
2018-09-22T16:48:17.146Z,100618.55
2018-09-22T16:50:46.676Z,100621.30
2018-09-22T16:53:16.273Z,100605.00
2018-09-22T16:55:45.058Z,100593.77
2018-09-22T16:58:13.749Z,100589.16
2018-09-22T17:00:42.527Z,100616.41
2018-09-22T17:03:11.428Z,100615.45
2018-09-22T17:05:40.306Z,100627.84
2018-09-22T17:08:09.099Z,100635.44
2018-09-22T17:10:37.995Z,100627.75
2018-09-22T17:13:07.137Z,100629.57
2018-09-22T17:15:35.843Z,100620.91
2018-09-22T17:18:04.915Z,100628.23
2018-09-22T17:20:33.717Z,100617.81
2018-09-22T17:23:02.323Z,100607.27
2018-09-22T17:25:31.216Z,100603.44
2018-09-22T17:28:00.319Z,100599.36
2018-09-22T17:30:29.091Z,100592.52
2018-09-22T17:32:57.697Z,100597.31
2018-09-22T17:35:27.402Z,100595.09
2018-09-22T17:37:56.107Z,100591.83
2018-09-22T17:40:25.471Z,100595.98
2018-09-22T17:42:54.670Z,100583.98
2018-09-22T17:45:24.090Z,100591.70
2018-09-22T17:47:53.470Z,100595.67
2018-09-22T17:50:22.607Z,100594.31
2018-09-22T17:52:51.682Z,100599.63
2018-09-22T17:55:20.725Z,100602.67
2018-09-22T17:57:49.638Z,100625.45
2018-09-22T18:00:18.703Z,100647.27
2018-09-22T18:02:47.600Z,100650.44
2018-09-22T18:05:16.227Z,100649.25
2018-09-22T18:07:45.139Z,100646.77
2018-09-22T18:10:13.965Z,100652.14
2018-09-22T18:12:42.558Z,100668.91
2018-09-22T18:15:11.641Z,100671.59
2018-09-22T18:17:40.584Z,100666.90
2018-09-22T18:20:09.835Z,100672.25
2018-09-22T18:22:38.974Z,100676.01
2018-09-22T18:25:08.451Z,100659.91
2018-09-22T18:27:38.041Z,100668.89
2018-09-22T18:30:07.454Z,100664.37
2018-09-22T18:32:36.236Z,100665.74
2018-09-22T18:35:05.930Z,100668.89
2018-09-22T18:37:36.011Z,100672.78
2018-09-22T18:40:05.369Z,100670.13
2018-09-22T18:42:35.293Z,100664.66
2018-09-22T18:45:04.598Z,100669.05
2018-09-22T18:47:33.504Z,100676.12
2018-09-22T18:50:02.573Z,100677.40
2018-09-22T18:52:31.973Z,100675.20
2018-09-22T18:55:02.189Z,100670.17
2018-09-22T18:57:31.165Z,100666.77
2018-09-22T19:00:00.271Z,100660.34
2018-09-22T19:02:29.274Z,100660.23
2018-09-22T19:04:58.083Z,100654.75
2018-09-22T19:07:26.819Z,100667.57
2018-09-22T19:09:55.493Z,100666.75
2018-09-22T19:12:24.293Z,100668.89
2018-09-22T19:15:04.088Z,100663.30
2018-09-22T19:17:36.246Z,100665.87
2018-09-22T19:20:10.577Z,100658.80
2018-09-22T19:22:47.548Z,100657.88
2018-09-22T19:25:19.503Z,100655.95
2018-09-22T19:27:53.209Z,100654.96
2018-09-22T19:30:28.808Z,100654.02
2018-09-22T19:33:00.827Z,100664.41
2018-09-22T19:35:32.800Z,100664.30
2018-09-22T19:38:07.065Z,100657.33
2018-09-22T19:40:41.417Z,100657.80
2018-09-22T19:43:18.468Z,100659.01
2018-09-22T19:45:50.306Z,100649.67
2018-09-22T19:48:55.164Z,100651.84
2018-09-22T19:51:25.515Z,100655.21
2018-09-22T19:53:56.127Z,100664.69
2018-09-22T19:56:24.972Z,100662.85
2018-09-22T19:58:53.769Z,100660.36
2018-09-22T20:01:22.778Z,100661.93
2018-09-22T20:03:51.186Z,100662.29
2018-09-22T20:06:19.705Z,100666.56
2018-09-22T20:08:48.487Z,100664.56
2018-09-22T20:11:17.344Z,100664.13
2018-09-22T20:13:46.206Z,100666.40
2018-09-22T20:16:15.233Z,100660.37
2018-09-22T20:18:44.970Z,100661.55
2018-09-22T20:21:14.194Z,100652.70
2018-09-22T20:23:42.963Z,100651.02
2018-09-22T20:26:11.996Z,100647.58
2018-09-22T20:28:40.814Z,100649.66
2018-09-22T20:31:09.681Z,100648.55
2018-09-22T20:33:38.408Z,100656.15
2018-09-22T20:36:07.236Z,100651.10
2018-09-22T20:41:28.848Z,100645.44
2018-09-22T20:43:57.873Z,100652.60
2018-09-22T20:46:26.693Z,100650.91
2018-09-22T20:48:55.158Z,100644.55
2018-09-22T20:51:24.001Z,100643.25
2018-09-22T20:53:52.434Z,100646.25
2018-09-22T20:56:20.944Z,100646.66
2018-09-22T20:58:49.393Z,100642.50
2018-09-22T21:01:19.277Z,100642.52
2018-09-22T21:03:47.633Z,100644.19
2018-09-22T21:06:16.039Z,100645.16
2018-09-22T21:08:44.521Z,100639.13
2018-09-22T21:11:13.044Z,100636.73
2018-09-22T21:13:41.574Z,100651.75
2018-09-22T21:16:10.116Z,100646.72
2018-09-22T21:18:38.725Z,100640.67
2018-09-22T21:21:07.184Z,100641.59
2018-09-22T21:23:36.153Z,100639.33
2018-09-22T21:26:04.619Z,100638.14
2018-09-22T21:28:33.735Z,100644.52
2018-09-22T21:31:02.195Z,100640.70
2018-09-22T21:33:30.694Z,100636.53
2018-09-22T21:35:59.831Z,100639.88
2018-09-22T21:38:28.316Z,100637.28
2018-09-22T21:40:56.793Z,100638.95
2018-09-22T21:43:25.337Z,100638.56
2018-09-22T21:45:53.773Z,100636.84
2018-09-22T21:48:22.255Z,100634.36
2018-09-22T21:50:50.730Z,100632.09
2018-09-22T21:53:19.755Z,100633.89
2018-09-22T21:55:48.914Z,100621.16
2018-09-22T21:58:17.405Z,100619.05
2018-09-22T22:00:50.153Z,100609.66
2018-09-22T22:03:49.190Z,100614.05
2018-09-22T22:06:17.683Z,100608.84
2018-09-22T22:08:46.269Z,100600.70
2018-09-22T22:11:14.894Z,100600.25
2018-09-22T22:13:43.522Z,100609.65
2018-09-22T22:16:12.006Z,100610.05
2018-09-22T22:18:40.527Z,100619.05
2018-09-22T22:21:09.174Z,100608.81
2018-09-22T22:23:37.690Z,100602.78
2018-09-22T22:26:06.324Z,100590.91
2018-09-22T22:28:34.797Z,100597.33
2018-09-22T22:31:03.550Z,100602.89
2018-09-22T22:33:32.011Z,100597.47
2018-09-22T22:36:00.778Z,100600.48
2018-09-22T22:38:29.338Z,100601.41
2018-09-22T22:40:57.810Z,100602.22
2018-09-22T22:43:26.483Z,100603.41
2018-09-22T22:45:54.981Z,100597.94
2018-09-22T22:48:23.528Z,100594.44
2018-09-22T22:50:52.049Z,100589.71
2018-09-22T22:53:20.479Z,100594.44
2018-09-22T22:55:48.943Z,100594.39
2018-09-22T22:58:17.439Z,100591.44
2018-09-22T23:00:46.032Z,100595.73
2018-09-22T23:03:15.193Z,100596.13
2018-09-22T23:05:43.674Z,100598.23
2018-09-22T23:08:12.126Z,100595.28
2018-09-22T23:10:41.302Z,100586.34
2018-09-22T23:13:10.140Z,100587.72
2018-09-22T23:15:38.613Z,100580.01
2018-09-22T23:18:07.213Z,100582.22
2018-09-22T23:20:36.203Z,100590.43
2018-09-22T23:23:04.569Z,100589.59
2018-09-22T23:25:33.023Z,100587.03
2018-09-22T23:28:02.556Z,100583.58
2018-09-22T23:30:30.982Z,100576.87
2018-09-22T23:32:59.343Z,100583.30
2018-09-22T23:35:27.704Z,100583.30
2018-09-22T23:37:57.277Z,100583.34
2018-09-22T23:40:25.967Z,100578.63
2018-09-22T23:42:54.442Z,100590.66
2018-09-22T23:45:22.863Z,100593.63
2018-09-22T23:47:51.279Z,100597.46
2018-09-22T23:50:19.739Z,100590.66
2018-09-22T23:52:48.159Z,100588.11
2018-09-22T23:55:23.228Z,100589.78
2018-09-22T23:57:51.873Z,100593.63
